sensor_id;sensor_type;location;lat;lon;timestamp;P1;durP1;ratioP1;P2;durP2;ratioP2
4448;SDS011;2237;51.870;6.160;2023-03-01T00:01:31;11.23;;;4.03;;
4448;SDS011;2237;51.870;6.160;2023-03-01T00:03:58;8.10;;;3.88;;
4448;SDS011;2237;51.870;6.160;2023-03-01T00:06:25;7.70;;;3.95;;
4448;SDS011;2237;51.870;6.160;2023-03-01T00:08:53;7.78;;;3.80;;
4448;SDS011;2237;51.870;6.160;2023-03-01T00:13:51;9.63;;;4.22;;
4448;SDS011;2237;51.870;6.160;2023-03-01T00:16:20;7.78;;;4.43;;
4448;SDS011;2237;51.870;6.160;2023-03-01T00:18:48;8.32;;;4.15;;
4448;SDS011;2237;51.870;6.160;2023-03-01T00:21:14;10.50;;;4.47;;
4448;SDS011;2237;51.870;6.160;2023-03-01T00:23:41;11.38;;;4.53;;
4448;SDS011;2237;51.870;6.160;2023-03-01T00:26:08;9.23;;;4.43;;
4448;SDS011;2237;51.870;6.160;2023-03-01T00:28:36;10.20;;;4.35;;
4448;SDS011;2237;51.870;6.160;2023-03-01T00:31:07;6.85;;;3.78;;
4448;SDS011;2237;51.870;6.160;2023-03-01T00:33:35;7.22;;;3.67;;
4448;SDS011;2237;51.870;6.160;2023-03-01T00:36:02;8.73;;;4.20;;
4448;SDS011;2237;51.870;6.160;2023-03-01T00:38:29;8.07;;;4.45;;
4448;SDS011;2237;51.870;6.160;2023-03-01T00:41:02;12.35;;;4.65;;
4448;SDS011;2237;51.870;6.160;2023-03-01T00:43:29;9.60;;;4.38;;
4448;SDS011;2237;51.870;6.160;2023-03-01T00:46:00;9.45;;;4.15;;
4448;SDS011;2237;51.870;6.160;2023-03-01T00:48:27;6.80;;;3.92;;
4448;SDS011;2237;51.870;6.160;2023-03-01T00:50:53;7.65;;;4.22;;
4448;SDS011;2237;51.870;6.160;2023-03-01T00:53:19;9.48;;;4.38;;
4448;SDS011;2237;51.870;6.160;2023-03-01T00:55:46;8.45;;;4.20;;
4448;SDS011;2237;51.870;6.160;2023-03-01T00:58:12;11.25;;;4.88;;
4448;SDS011;2237;51.870;6.160;2023-03-01T01:00:38;9.30;;;4.25;;
4448;SDS011;2237;51.870;6.160;2023-03-01T01:03:05;9.13;;;4.25;;
4448;SDS011;2237;51.870;6.160;2023-03-01T01:05:33;12.48;;;4.20;;
4448;SDS011;2237;51.870;6.160;2023-03-01T01:08:00;11.27;;;4.00;;
4448;SDS011;2237;51.870;6.160;2023-03-01T01:10:26;9.90;;;4.10;;
4448;SDS011;2237;51.870;6.160;2023-03-01T01:12:53;8.68;;;3.85;;
4448;SDS011;2237;51.870;6.160;2023-03-01T01:15:19;10.90;;;4.25;;
4448;SDS011;2237;51.870;6.160;2023-03-01T01:17:45;9.73;;;4.07;;
4448;SDS011;2237;51.870;6.160;2023-03-01T01:20:12;8.27;;;4.50;;
4448;SDS011;2237;51.870;6.160;2023-03-01T01:22:38;7.47;;;3.85;;
4448;SDS011;2237;51.870;6.160;2023-03-01T01:25:05;11.40;;;4.05;;
4448;SDS011;2237;51.870;6.160;2023-03-01T01:27:31;8.95;;;4.05;;
4448;SDS011;2237;51.870;6.160;2023-03-01T01:29:58;8.98;;;4.00;;
4448;SDS011;2237;51.870;6.160;2023-03-01T01:32:24;8.23;;;3.97;;
4448;SDS011;2237;51.870;6.160;2023-03-01T01:34:52;7.95;;;3.55;;
4448;SDS011;2237;51.870;6.160;2023-03-01T01:37:18;7.57;;;3.85;;
4448;SDS011;2237;51.870;6.160;2023-03-01T01:39:45;10.40;;;3.97;;
4448;SDS011;2237;51.870;6.160;2023-03-01T01:42:15;7.85;;;4.00;;
4448;SDS011;2237;51.870;6.160;2023-03-01T01:44:44;9.13;;;3.35;;
4448;SDS011;2237;51.870;6.160;2023-03-01T01:49:48;7.50;;;4.10;;
4448;SDS011;2237;51.870;6.160;2023-03-01T01:52:19;6.88;;;3.92;;
4448;SDS011;2237;51.870;6.160;2023-03-01T01:55:24;7.75;;;3.85;;
4448;SDS011;2237;51.870;6.160;2023-03-01T01:57:51;9.35;;;4.07;;
4448;SDS011;2237;51.870;6.160;2023-03-01T02:02:49;8.45;;;3.95;;
4448;SDS011;2237;51.870;6.160;2023-03-01T02:05:24;7.13;;;2.88;;
4448;SDS011;2237;51.870;6.160;2023-03-01T02:07:52;8.65;;;3.92;;
4448;SDS011;2237;51.870;6.160;2023-03-01T02:10:20;8.07;;;3.40;;
4448;SDS011;2237;51.870;6.160;2023-03-01T02:12:48;6.38;;;3.13;;
4448;SDS011;2237;51.870;6.160;2023-03-01T02:15:15;11.55;;;3.80;;
4448;SDS011;2237;51.870;6.160;2023-03-01T02:17:42;8.93;;;4.30;;
4448;SDS011;2237;51.870;6.160;2023-03-01T02:20:21;6.65;;;3.70;;
4448;SDS011;2237;51.870;6.160;2023-03-01T02:22:57;10.57;;;4.45;;
4448;SDS011;2237;51.870;6.160;2023-03-01T02:25:40;12.15;;;4.18;;
4448;SDS011;2237;51.870;6.160;2023-03-01T02:30:45;7.43;;;3.55;;
4448;SDS011;2237;51.870;6.160;2023-03-01T02:33:33;8.02;;;4.13;;
4448;SDS011;2237;51.870;6.160;2023-03-01T02:36:03;7.65;;;3.45;;
4448;SDS011;2237;51.870;6.160;2023-03-01T02:38:32;9.05;;;3.75;;
4448;SDS011;2237;51.870;6.160;2023-03-01T02:40:59;9.10;;;4.05;;
4448;SDS011;2237;51.870;6.160;2023-03-01T02:43:29;9.15;;;4.20;;
4448;SDS011;2237;51.870;6.160;2023-03-01T02:45:58;10.07;;;3.80;;
4448;SDS011;2237;51.870;6.160;2023-03-01T02:48:27;8.63;;;3.92;;
4448;SDS011;2237;51.870;6.160;2023-03-01T02:56:14;6.40;;;3.60;;
4448;SDS011;2237;51.870;6.160;2023-03-01T02:58:41;10.02;;;3.58;;
4448;SDS011;2237;51.870;6.160;2023-03-01T03:01:11;9.90;;;4.40;;
4448;SDS011;2237;51.870;6.160;2023-03-01T03:03:41;8.02;;;3.67;;
4448;SDS011;2237;51.870;6.160;2023-03-01T03:06:08;8.80;;;3.85;;
4448;SDS011;2237;51.870;6.160;2023-03-01T03:08:34;9.18;;;4.22;;
4448;SDS011;2237;51.870;6.160;2023-03-01T03:11:01;8.70;;;3.95;;
4448;SDS011;2237;51.870;6.160;2023-03-01T03:13:27;8.27;;;3.83;;
4448;SDS011;2237;51.870;6.160;2023-03-01T03:15:55;7.97;;;3.45;;
4448;SDS011;2237;51.870;6.160;2023-03-01T03:18:23;6.93;;;3.28;;
4448;SDS011;2237;51.870;6.160;2023-03-01T03:20:52;11.77;;;4.13;;
4448;SDS011;2237;51.870;6.160;2023-03-01T03:23:20;7.97;;;4.18;;
4448;SDS011;2237;51.870;6.160;2023-03-01T03:25:48;9.57;;;4.18;;
4448;SDS011;2237;51.870;6.160;2023-03-01T03:28:15;10.32;;;3.50;;
4448;SDS011;2237;51.870;6.160;2023-03-01T03:30:42;11.32;;;3.83;;
4448;SDS011;2237;51.870;6.160;2023-03-01T03:33:10;9.23;;;4.40;;
4448;SDS011;2237;51.870;6.160;2023-03-01T03:35:41;8.90;;;4.13;;
4448;SDS011;2237;51.870;6.160;2023-03-01T03:38:09;8.60;;;3.90;;
4448;SDS011;2237;51.870;6.160;2023-03-01T03:40:45;8.93;;;4.47;;
4448;SDS011;2237;51.870;6.160;2023-03-01T03:43:18;9.25;;;4.03;;
4448;SDS011;2237;51.870;6.160;2023-03-01T03:45:47;8.32;;;3.85;;
4448;SDS011;2237;51.870;6.160;2023-03-01T03:48:14;10.40;;;4.38;;
4448;SDS011;2237;51.870;6.160;2023-03-01T03:50:41;10.27;;;3.67;;
4448;SDS011;2237;51.870;6.160;2023-03-01T03:53:14;9.30;;;4.38;;
4448;SDS011;2237;51.870;6.160;2023-03-01T03:55:40;9.75;;;4.20;;
4448;SDS011;2237;51.870;6.160;2023-03-01T03:58:07;7.75;;;4.07;;
4448;SDS011;2237;51.870;6.160;2023-03-01T04:00:36;9.57;;;3.83;;
4448;SDS011;2237;51.870;6.160;2023-03-01T04:03:04;9.90;;;3.55;;
4448;SDS011;2237;51.870;6.160;2023-03-01T04:05:31;10.27;;;4.13;;
4448;SDS011;2237;51.870;6.160;2023-03-01T04:07:58;10.43;;;4.15;;
4448;SDS011;2237;51.870;6.160;2023-03-01T04:10:29;12.67;;;4.17;;
4448;SDS011;2237;51.870;6.160;2023-03-01T04:12:57;10.30;;;4.70;;
4448;SDS011;2237;51.870;6.160;2023-03-01T04:15:24;9.98;;;4.53;;
4448;SDS011;2237;51.870;6.160;2023-03-01T04:17:52;9.63;;;3.83;;
4448;SDS011;2237;51.870;6.160;2023-03-01T04:20:20;8.63;;;4.30;;
4448;SDS011;2237;51.870;6.160;2023-03-01T04:22:55;6.22;;;3.90;;
4448;SDS011;2237;51.870;6.160;2023-03-01T04:25:37;9.43;;;4.10;;
4448;SDS011;2237;51.870;6.160;2023-03-01T04:28:05;9.82;;;4.78;;
4448;SDS011;2237;51.870;6.160;2023-03-01T04:30:32;9.10;;;4.35;;
4448;SDS011;2237;51.870;6.160;2023-03-01T04:33:05;8.80;;;4.47;;
4448;SDS011;2237;51.870;6.160;2023-03-01T04:35:33;12.00;;;4.20;;
4448;SDS011;2237;51.870;6.160;2023-03-01T04:38:01;9.18;;;4.25;;
4448;SDS011;2237;51.870;6.160;2023-03-01T04:40:28;10.93;;;4.57;;
4448;SDS011;2237;51.870;6.160;2023-03-01T04:42:55;14.13;;;4.70;;
4448;SDS011;2237;51.870;6.160;2023-03-01T04:45:21;9.15;;;4.28;;
4448;SDS011;2237;51.870;6.160;2023-03-01T04:47:47;10.23;;;4.93;;
4448;SDS011;2237;51.870;6.160;2023-03-01T04:50:15;8.45;;;4.30;;
4448;SDS011;2237;51.870;6.160;2023-03-01T04:52:43;8.45;;;4.13;;
4448;SDS011;2237;51.870;6.160;2023-03-01T04:55:10;10.82;;;4.78;;
4448;SDS011;2237;51.870;6.160;2023-03-01T04:57:36;8.93;;;4.00;;
4448;SDS011;2237;51.870;6.160;2023-03-01T05:00:03;9.55;;;4.18;;
4448;SDS011;2237;51.870;6.160;2023-03-01T05:02:50;9.88;;;3.97;;
4448;SDS011;2237;51.870;6.160;2023-03-01T05:07:52;13.95;;;5.57;;
4448;SDS011;2237;51.870;6.160;2023-03-01T05:10:19;23.35;;;8.52;;
4448;SDS011;2237;51.870;6.160;2023-03-01T05:12:46;17.08;;;7.40;;
4448;SDS011;2237;51.870;6.160;2023-03-01T05:15:12;13.35;;;5.57;;
4448;SDS011;2237;51.870;6.160;2023-03-01T05:17:39;12.68;;;5.60;;
4448;SDS011;2237;51.870;6.160;2023-03-01T05:20:05;12.23;;;5.35;;
4448;SDS011;2237;51.870;6.160;2023-03-01T05:22:35;9.25;;;4.97;;
4448;SDS011;2237;51.870;6.160;2023-03-01T05:25:01;9.27;;;4.38;;
4448;SDS011;2237;51.870;6.160;2023-03-01T05:27:28;10.07;;;5.05;;
4448;SDS011;2237;51.870;6.160;2023-03-01T05:29:55;8.95;;;3.78;;
4448;SDS011;2237;51.870;6.160;2023-03-01T05:32:22;10.60;;;4.88;;
4448;SDS011;2237;51.870;6.160;2023-03-01T05:34:48;10.88;;;5.30;;
4448;SDS011;2237;51.870;6.160;2023-03-01T05:37:15;13.55;;;5.53;;
4448;SDS011;2237;51.870;6.160;2023-03-01T05:39:42;10.88;;;4.50;;
4448;SDS011;2237;51.870;6.160;2023-03-01T05:42:08;13.93;;;4.65;;
4448;SDS011;2237;51.870;6.160;2023-03-01T05:44:37;8.65;;;4.55;;
4448;SDS011;2237;51.870;6.160;2023-03-01T05:47:03;9.98;;;4.75;;
4448;SDS011;2237;51.870;6.160;2023-03-01T05:49:30;9.20;;;3.85;;
4448;SDS011;2237;51.870;6.160;2023-03-01T05:51:57;11.85;;;4.43;;
4448;SDS011;2237;51.870;6.160;2023-03-01T05:54:24;8.35;;;3.72;;
4448;SDS011;2237;51.870;6.160;2023-03-01T05:56:50;8.43;;;4.28;;
4448;SDS011;2237;51.870;6.160;2023-03-01T05:59:16;11.60;;;4.40;;
4448;SDS011;2237;51.870;6.160;2023-03-01T06:01:43;8.75;;;4.43;;
4448;SDS011;2237;51.870;6.160;2023-03-01T06:04:09;9.45;;;4.22;;
4448;SDS011;2237;51.870;6.160;2023-03-01T06:06:36;10.90;;;3.92;;
4448;SDS011;2237;51.870;6.160;2023-03-01T06:09:05;9.75;;;4.72;;
4448;SDS011;2237;51.870;6.160;2023-03-01T06:11:35;9.07;;;4.40;;
4448;SDS011;2237;51.870;6.160;2023-03-01T06:14:02;10.38;;;4.85;;
4448;SDS011;2237;51.870;6.160;2023-03-01T06:16:30;9.82;;;4.32;;
4448;SDS011;2237;51.870;6.160;2023-03-01T06:18:56;8.57;;;4.10;;
4448;SDS011;2237;51.870;6.160;2023-03-01T06:21:23;12.38;;;4.90;;
4448;SDS011;2237;51.870;6.160;2023-03-01T06:23:49;9.32;;;4.35;;
4448;SDS011;2237;51.870;6.160;2023-03-01T06:26:15;14.88;;;5.03;;
4448;SDS011;2237;51.870;6.160;2023-03-01T06:28:42;10.10;;;4.97;;
4448;SDS011;2237;51.870;6.160;2023-03-01T06:31:08;9.32;;;4.00;;
4448;SDS011;2237;51.870;6.160;2023-03-01T06:33:35;12.10;;;4.45;;
4448;SDS011;2237;51.870;6.160;2023-03-01T06:36:03;9.77;;;4.35;;
4448;SDS011;2237;51.870;6.160;2023-03-01T06:38:29;11.55;;;5.28;;
4448;SDS011;2237;51.870;6.160;2023-03-01T06:40:56;12.65;;;5.15;;
4448;SDS011;2237;51.870;6.160;2023-03-01T06:43:23;10.68;;;5.00;;
4448;SDS011;2237;51.870;6.160;2023-03-01T06:45:50;9.68;;;4.28;;
4448;SDS011;2237;51.870;6.160;2023-03-01T06:48:16;11.02;;;5.07;;
4448;SDS011;2237;51.870;6.160;2023-03-01T06:50:43;13.30;;;6.25;;
4448;SDS011;2237;51.870;6.160;2023-03-01T06:53:10;13.68;;;7.18;;
4448;SDS011;2237;51.870;6.160;2023-03-01T06:55:36;15.82;;;9.43;;
4448;SDS011;2237;51.870;6.160;2023-03-01T06:58:03;10.55;;;5.28;;
4448;SDS011;2237;51.870;6.160;2023-03-01T07:00:29;22.10;;;9.60;;
4448;SDS011;2237;51.870;6.160;2023-03-01T07:02:58;19.33;;;8.05;;
4448;SDS011;2237;51.870;6.160;2023-03-01T07:05:25;19.42;;;8.30;;
4448;SDS011;2237;51.870;6.160;2023-03-01T07:07:52;21.65;;;7.78;;
4448;SDS011;2237;51.870;6.160;2023-03-01T07:10:19;15.23;;;6.85;;
4448;SDS011;2237;51.870;6.160;2023-03-01T07:12:46;21.05;;;10.52;;
4448;SDS011;2237;51.870;6.160;2023-03-01T07:15:12;16.50;;;5.78;;
4448;SDS011;2237;51.870;6.160;2023-03-01T07:17:40;14.45;;;6.18;;
4448;SDS011;2237;51.870;6.160;2023-03-01T07:20:07;12.90;;;5.80;;
4448;SDS011;2237;51.870;6.160;2023-03-01T07:22:34;12.57;;;5.88;;
4448;SDS011;2237;51.870;6.160;2023-03-01T07:25:00;11.77;;;4.78;;
4448;SDS011;2237;51.870;6.160;2023-03-01T07:27:27;11.82;;;5.20;;
4448;SDS011;2237;51.870;6.160;2023-03-01T07:29:53;11.82;;;5.10;;
4448;SDS011;2237;51.870;6.160;2023-03-01T07:32:19;13.27;;;5.55;;
4448;SDS011;2237;51.870;6.160;2023-03-01T07:34:46;13.30;;;5.53;;
4448;SDS011;2237;51.870;6.160;2023-03-01T07:37:12;14.52;;;6.43;;
4448;SDS011;2237;51.870;6.160;2023-03-01T07:39:38;16.85;;;6.65;;
4448;SDS011;2237;51.870;6.160;2023-03-01T07:42:05;18.85;;;6.80;;
4448;SDS011;2237;51.870;6.160;2023-03-01T07:44:31;12.35;;;5.18;;
4448;SDS011;2237;51.870;6.160;2023-03-01T07:46:57;12.93;;;6.15;;
4448;SDS011;2237;51.870;6.160;2023-03-01T07:49:24;18.55;;;6.72;;
4448;SDS011;2237;51.870;6.160;2023-03-01T07:51:52;16.10;;;5.82;;
4448;SDS011;2237;51.870;6.160;2023-03-01T07:54:19;12.40;;;5.25;;
4448;SDS011;2237;51.870;6.160;2023-03-01T07:56:45;14.57;;;5.80;;
4448;SDS011;2237;51.870;6.160;2023-03-01T07:59:11;14.32;;;6.43;;
4448;SDS011;2237;51.870;6.160;2023-03-01T08:01:38;13.70;;;5.82;;
4448;SDS011;2237;51.870;6.160;2023-03-01T08:04:04;14.45;;;6.22;;
4448;SDS011;2237;51.870;6.160;2023-03-01T08:06:33;13.45;;;6.40;;
4448;SDS011;2237;51.870;6.160;2023-03-01T08:09:00;19.58;;;5.93;;
4448;SDS011;2237;51.870;6.160;2023-03-01T08:11:27;11.65;;;5.70;;
4448;SDS011;2237;51.870;6.160;2023-03-01T08:13:56;13.57;;;6.10;;
4448;SDS011;2237;51.870;6.160;2023-03-01T08:16:23;11.32;;;4.80;;
4448;SDS011;2237;51.870;6.160;2023-03-01T08:18:50;8.77;;;4.05;;
4448;SDS011;2237;51.870;6.160;2023-03-01T08:21:16;9.13;;;3.92;;
4448;SDS011;2237;51.870;6.160;2023-03-01T08:23:43;9.20;;;3.63;;
4448;SDS011;2237;51.870;6.160;2023-03-01T08:28:38;7.55;;;3.40;;
4448;SDS011;2237;51.870;6.160;2023-03-01T08:33:42;9.05;;;3.65;;
4448;SDS011;2237;51.870;6.160;2023-03-01T08:36:08;6.78;;;3.85;;
4448;SDS011;2237;51.870;6.160;2023-03-01T08:38:35;11.27;;;3.83;;
4448;SDS011;2237;51.870;6.160;2023-03-01T08:41:02;8.88;;;3.75;;
4448;SDS011;2237;51.870;6.160;2023-03-01T08:43:29;5.07;;;2.60;;
4448;SDS011;2237;51.870;6.160;2023-03-01T08:45:55;8.80;;;3.65;;
4448;SDS011;2237;51.870;6.160;2023-03-01T08:48:22;6.50;;;3.15;;
4448;SDS011;2237;51.870;6.160;2023-03-01T08:50:48;6.93;;;3.47;;
4448;SDS011;2237;51.870;6.160;2023-03-01T08:53:15;5.07;;;1.90;;
4448;SDS011;2237;51.870;6.160;2023-03-01T08:55:41;8.90;;;3.20;;
4448;SDS011;2237;51.870;6.160;2023-03-01T08:58:07;6.85;;;2.95;;
4448;SDS011;2237;51.870;6.160;2023-03-01T09:00:34;8.27;;;3.22;;
4448;SDS011;2237;51.870;6.160;2023-03-01T09:03:00;6.53;;;2.58;;
4448;SDS011;2237;51.870;6.160;2023-03-01T09:05:27;7.45;;;3.10;;
4448;SDS011;2237;51.870;6.160;2023-03-01T09:07:54;5.93;;;3.30;;
4448;SDS011;2237;51.870;6.160;2023-03-01T09:10:20;6.07;;;2.40;;
4448;SDS011;2237;51.870;6.160;2023-03-01T09:12:46;7.97;;;2.88;;
4448;SDS011;2237;51.870;6.160;2023-03-01T09:15:13;7.35;;;2.85;;
4448;SDS011;2237;51.870;6.160;2023-03-01T09:17:39;7.15;;;3.63;;
4448;SDS011;2237;51.870;6.160;2023-03-01T09:20:06;10.88;;;3.60;;
4448;SDS011;2237;51.870;6.160;2023-03-01T09:22:33;10.02;;;3.97;;
4448;SDS011;2237;51.870;6.160;2023-03-01T09:25:00;7.88;;;3.63;;
4448;SDS011;2237;51.870;6.160;2023-03-01T09:27:27;6.25;;;2.90;;
4448;SDS011;2237;51.870;6.160;2023-03-01T09:29:53;5.38;;;2.58;;
4448;SDS011;2237;51.870;6.160;2023-03-01T09:32:22;6.10;;;3.47;;
4448;SDS011;2237;51.870;6.160;2023-03-01T09:34:48;10.00;;;3.70;;
4448;SDS011;2237;51.870;6.160;2023-03-01T09:37:29;6.20;;;3.15;;
4448;SDS011;2237;51.870;6.160;2023-03-01T09:39:56;7.28;;;3.47;;
4448;SDS011;2237;51.870;6.160;2023-03-01T09:42:22;6.60;;;3.40;;
4448;SDS011;2237;51.870;6.160;2023-03-01T09:44:57;8.25;;;3.60;;
4448;SDS011;2237;51.870;6.160;2023-03-01T09:47:29;6.55;;;3.53;;
4448;SDS011;2237;51.870;6.160;2023-03-01T09:50:10;6.53;;;3.08;;
4448;SDS011;2237;51.870;6.160;2023-03-01T09:52:43;5.80;;;2.83;;
4448;SDS011;2237;51.870;6.160;2023-03-01T09:55:15;5.38;;;2.58;;
4448;SDS011;2237;51.870;6.160;2023-03-01T09:57:53;5.30;;;2.63;;
4448;SDS011;2237;51.870;6.160;2023-03-01T10:00:43;5.50;;;2.75;;
4448;SDS011;2237;51.870;6.160;2023-03-01T10:06:26;4.82;;;2.22;;
4448;SDS011;2237;51.870;6.160;2023-03-01T10:09:02;8.50;;;3.08;;
4448;SDS011;2237;51.870;6.160;2023-03-01T10:11:37;6.97;;;3.20;;
4448;SDS011;2237;51.870;6.160;2023-03-01T10:14:29;6.35;;;3.22;;
4448;SDS011;2237;51.870;6.160;2023-03-01T10:17:07;4.78;;;2.58;;
4448;SDS011;2237;51.870;6.160;2023-03-01T10:19:40;14.98;;;2.80;;
4448;SDS011;2237;51.870;6.160;2023-03-01T10:22:13;2.53;;;1.33;;
4448;SDS011;2237;51.870;6.160;2023-03-01T10:24:44;6.55;;;3.03;;
4448;SDS011;2237;51.870;6.160;2023-03-01T10:30:01;5.05;;;2.17;;
4448;SDS011;2237;51.870;6.160;2023-03-01T10:32:39;3.88;;;1.42;;
4448;SDS011;2237;51.870;6.160;2023-03-01T10:35:19;5.38;;;2.22;;
4448;SDS011;2237;51.870;6.160;2023-03-01T10:37:56;4.20;;;2.20;;
4448;SDS011;2237;51.870;6.160;2023-03-01T10:40:34;5.25;;;2.17;;
4448;SDS011;2237;51.870;6.160;2023-03-01T10:43:03;5.57;;;2.28;;
4448;SDS011;2237;51.870;6.160;2023-03-01T10:45:37;7.68;;;3.33;;
4448;SDS011;2237;51.870;6.160;2023-03-01T10:48:08;8.50;;;3.80;;
4448;SDS011;2237;51.870;6.160;2023-03-01T10:50:36;4.80;;;2.40;;
4448;SDS011;2237;51.870;6.160;2023-03-01T10:53:08;10.07;;;3.60;;
4448;SDS011;2237;51.870;6.160;2023-03-01T10:55:47;6.97;;;3.50;;
4448;SDS011;2237;51.870;6.160;2023-03-01T10:58:23;9.60;;;3.33;;
4448;SDS011;2237;51.870;6.160;2023-03-01T11:00:54;8.02;;;3.70;;
4448;SDS011;2237;51.870;6.160;2023-03-01T11:03:29;8.10;;;3.15;;
4448;SDS011;2237;51.870;6.160;2023-03-01T11:08:36;8.63;;;3.53;;
4448;SDS011;2237;51.870;6.160;2023-03-01T11:11:32;6.68;;;3.30;;
4448;SDS011;2237;51.870;6.160;2023-03-01T11:14:03;4.63;;;2.20;;
4448;SDS011;2237;51.870;6.160;2023-03-01T11:19:37;7.53;;;3.70;;
4448;SDS011;2237;51.870;6.160;2023-03-01T11:22:05;7.35;;;3.15;;
4448;SDS011;2237;51.870;6.160;2023-03-01T11:24:41;4.18;;;2.47;;
4448;SDS011;2237;51.870;6.160;2023-03-01T11:27:23;6.38;;;3.42;;
4448;SDS011;2237;51.870;6.160;2023-03-01T11:29:54;7.47;;;2.90;;
4448;SDS011;2237;51.870;6.160;2023-03-01T11:32:26;11.90;;;3.85;;
4448;SDS011;2237;51.870;6.160;2023-03-01T11:34:57;8.05;;;3.47;;
4448;SDS011;2237;51.870;6.160;2023-03-01T11:37:30;6.53;;;3.47;;
4448;SDS011;2237;51.870;6.160;2023-03-01T11:40:21;6.82;;;3.03;;
4448;SDS011;2237;51.870;6.160;2023-03-01T11:46:08;7.10;;;3.28;;
4448;SDS011;2237;51.870;6.160;2023-03-01T11:49:06;8.98;;;3.95;;
4448;SDS011;2237;51.870;6.160;2023-03-01T11:55:12;8.20;;;3.28;;
4448;SDS011;2237;51.870;6.160;2023-03-01T12:00:23;8.85;;;3.78;;
4448;SDS011;2237;51.870;6.160;2023-03-01T12:08:46;9.45;;;4.40;;
4448;SDS011;2237;51.870;6.160;2023-03-01T12:15:01;9.52;;;3.88;;
4448;SDS011;2237;51.870;6.160;2023-03-01T12:20:06;9.45;;;4.18;;
4448;SDS011;2237;51.870;6.160;2023-03-01T12:30:59;8.68;;;3.70;;
4448;SDS011;2237;51.870;6.160;2023-03-01T12:42:41;7.78;;;3.53;;
4448;SDS011;2237;51.870;6.160;2023-03-01T12:48:19;9.05;;;3.80;;
4448;SDS011;2237;51.870;6.160;2023-03-01T12:50:58;10.60;;;3.97;;
4448;SDS011;2237;51.870;6.160;2023-03-01T12:56:05;9.60;;;4.57;;
4448;SDS011;2237;51.870;6.160;2023-03-01T13:01:21;13.57;;;5.32;;
4448;SDS011;2237;51.870;6.160;2023-03-01T13:06:45;8.50;;;4.15;;
4448;SDS011;2237;51.870;6.160;2023-03-01T13:09:37;10.30;;;4.55;;
4448;SDS011;2237;51.870;6.160;2023-03-01T13:17:49;10.13;;;5.40;;
4448;SDS011;2237;51.870;6.160;2023-03-01T13:20:21;8.02;;;4.72;;
4448;SDS011;2237;51.870;6.160;2023-03-01T13:23:03;10.20;;;5.07;;
4448;SDS011;2237;51.870;6.160;2023-03-01T13:25:33;10.30;;;4.68;;
4448;SDS011;2237;51.870;6.160;2023-03-01T13:31:07;7.68;;;3.70;;
4448;SDS011;2237;51.870;6.160;2023-03-01T13:33:41;16.65;;;4.97;;
4448;SDS011;2237;51.870;6.160;2023-03-01T13:39:29;8.68;;;4.07;;
4448;SDS011;2237;51.870;6.160;2023-03-01T13:41:59;9.98;;;4.20;;
4448;SDS011;2237;51.870;6.160;2023-03-01T13:45:00;8.73;;;4.53;;
4448;SDS011;2237;51.870;6.160;2023-03-01T13:47:19;7.78;;;4.13;;
4448;SDS011;2237;51.870;6.160;2023-03-01T13:49:48;10.07;;;5.50;;
4448;SDS011;2237;51.870;6.160;2023-03-01T13:57:47;8.30;;;4.93;;
4448;SDS011;2237;51.870;6.160;2023-03-01T14:00:30;6.97;;;4.75;;
4448;SDS011;2237;51.870;6.160;2023-03-01T14:03:08;6.40;;;3.85;;
4448;SDS011;2237;51.870;6.160;2023-03-01T14:05:38;5.85;;;4.28;;
4448;SDS011;2237;51.870;6.160;2023-03-01T14:08:17;6.13;;;4.10;;
4448;SDS011;2237;51.870;6.160;2023-03-01T14:16:47;5.78;;;4.00;;
4448;SDS011;2237;51.870;6.160;2023-03-01T14:19:25;5.22;;;3.88;;
4448;SDS011;2237;51.870;6.160;2023-03-01T14:24:49;6.25;;;4.20;;
4448;SDS011;2237;51.870;6.160;2023-03-01T14:27:18;5.68;;;3.63;;
4448;SDS011;2237;51.870;6.160;2023-03-01T14:29:53;5.60;;;3.80;;
4448;SDS011;2237;51.870;6.160;2023-03-01T14:32:27;7.60;;;3.97;;
4448;SDS011;2237;51.870;6.160;2023-03-01T14:34:56;7.63;;;3.92;;
4448;SDS011;2237;51.870;6.160;2023-03-01T14:37:25;4.82;;;4.00;;
4448;SDS011;2237;51.870;6.160;2023-03-01T14:39:54;5.85;;;3.55;;
4448;SDS011;2237;51.870;6.160;2023-03-01T14:42:22;5.95;;;4.28;;
4448;SDS011;2237;51.870;6.160;2023-03-01T14:47:34;5.68;;;3.75;;
4448;SDS011;2237;51.870;6.160;2023-03-01T14:50:04;5.20;;;3.50;;
4448;SDS011;2237;51.870;6.160;2023-03-01T14:52:33;4.87;;;3.60;;
4448;SDS011;2237;51.870;6.160;2023-03-01T14:55:04;4.78;;;3.75;;
4448;SDS011;2237;51.870;6.160;2023-03-01T15:00:02;5.38;;;3.42;;
4448;SDS011;2237;51.870;6.160;2023-03-01T15:02:32;6.90;;;3.42;;
4448;SDS011;2237;51.870;6.160;2023-03-01T15:05:00;4.45;;;3.40;;
4448;SDS011;2237;51.870;6.160;2023-03-01T15:07:34;5.78;;;3.50;;
4448;SDS011;2237;51.870;6.160;2023-03-01T15:10:05;5.35;;;3.60;;
4448;SDS011;2237;51.870;6.160;2023-03-01T15:12:37;7.25;;;3.47;;
4448;SDS011;2237;51.870;6.160;2023-03-01T15:15:50;6.53;;;3.95;;
4448;SDS011;2237;51.870;6.160;2023-03-01T15:17:55;5.57;;;4.25;;
4448;SDS011;2237;51.870;6.160;2023-03-01T15:20:25;5.22;;;3.95;;
4448;SDS011;2237;51.870;6.160;2023-03-01T15:22:55;6.28;;;3.95;;
4448;SDS011;2237;51.870;6.160;2023-03-01T15:25:23;5.22;;;3.88;;
4448;SDS011;2237;51.870;6.160;2023-03-01T15:27:52;5.65;;;3.80;;
4448;SDS011;2237;51.870;6.160;2023-03-01T15:30:22;5.88;;;4.05;;
4448;SDS011;2237;51.870;6.160;2023-03-01T15:36:02;5.05;;;3.25;;
4448;SDS011;2237;51.870;6.160;2023-03-01T15:41:05;7.22;;;4.00;;
4448;SDS011;2237;51.870;6.160;2023-03-01T15:43:48;6.90;;;3.22;;
4448;SDS011;2237;51.870;6.160;2023-03-01T15:46:23;8.55;;;3.83;;
4448;SDS011;2237;51.870;6.160;2023-03-01T15:48:54;6.65;;;3.60;;
4448;SDS011;2237;51.870;6.160;2023-03-01T15:51:27;4.90;;;3.03;;
4448;SDS011;2237;51.870;6.160;2023-03-01T15:53:56;8.98;;;3.47;;
4448;SDS011;2237;51.870;6.160;2023-03-01T15:56:25;5.32;;;2.97;;
4448;SDS011;2237;51.870;6.160;2023-03-01T15:58:52;8.57;;;3.53;;
4448;SDS011;2237;51.870;6.160;2023-03-01T16:01:18;5.78;;;3.03;;
4448;SDS011;2237;51.870;6.160;2023-03-01T16:03:44;5.32;;;2.80;;
4448;SDS011;2237;51.870;6.160;2023-03-01T16:06:11;4.78;;;3.15;;
4448;SDS011;2237;51.870;6.160;2023-03-01T16:08:38;7.25;;;3.00;;
4448;SDS011;2237;51.870;6.160;2023-03-01T16:11:05;6.30;;;3.00;;
4448;SDS011;2237;51.870;6.160;2023-03-01T16:13:39;7.13;;;3.15;;
4448;SDS011;2237;51.870;6.160;2023-03-01T16:16:06;5.60;;;3.03;;
4448;SDS011;2237;51.870;6.160;2023-03-01T16:18:33;4.50;;;2.92;;
4448;SDS011;2237;51.870;6.160;2023-03-01T16:21:00;5.95;;;3.00;;
4448;SDS011;2237;51.870;6.160;2023-03-01T16:23:26;4.13;;;2.65;;
4448;SDS011;2237;51.870;6.160;2023-03-01T16:25:52;5.57;;;2.80;;
4448;SDS011;2237;51.870;6.160;2023-03-01T16:28:19;4.30;;;2.70;;
4448;SDS011;2237;51.870;6.160;2023-03-01T16:30:46;5.05;;;2.95;;
4448;SDS011;2237;51.870;6.160;2023-03-01T16:33:17;4.80;;;2.75;;
4448;SDS011;2237;51.870;6.160;2023-03-01T16:38:26;4.63;;;2.83;;
4448;SDS011;2237;51.870;6.160;2023-03-01T16:40:52;4.70;;;1.95;;
4448;SDS011;2237;51.870;6.160;2023-03-01T16:43:19;6.00;;;2.47;;
4448;SDS011;2237;51.870;6.160;2023-03-01T16:45:46;4.32;;;2.30;;
4448;SDS011;2237;51.870;6.160;2023-03-01T16:48:13;6.22;;;2.63;;
4448;SDS011;2237;51.870;6.160;2023-03-01T16:50:40;4.15;;;2.40;;
4448;SDS011;2237;51.870;6.160;2023-03-01T16:53:06;9.88;;;2.95;;
4448;SDS011;2237;51.870;6.160;2023-03-01T16:55:32;5.95;;;2.75;;
4448;SDS011;2237;51.870;6.160;2023-03-01T16:57:59;24.50;;;4.10;;
4448;SDS011;2237;51.870;6.160;2023-03-01T17:00:25;5.28;;;2.92;;
4448;SDS011;2237;51.870;6.160;2023-03-01T17:02:52;4.90;;;2.50;;
4448;SDS011;2237;51.870;6.160;2023-03-01T17:05:19;5.07;;;2.63;;
4448;SDS011;2237;51.870;6.160;2023-03-01T17:07:48;7.72;;;2.72;;
4448;SDS011;2237;51.870;6.160;2023-03-01T17:10:14;5.38;;;2.33;;
4448;SDS011;2237;51.870;6.160;2023-03-01T17:12:40;6.97;;;3.08;;
4448;SDS011;2237;51.870;6.160;2023-03-01T17:15:07;5.97;;;3.13;;
4448;SDS011;2237;51.870;6.160;2023-03-01T17:17:34;5.90;;;3.10;;
4448;SDS011;2237;51.870;6.160;2023-03-01T17:20:00;7.28;;;3.13;;
4448;SDS011;2237;51.870;6.160;2023-03-01T17:22:29;6.32;;;3.20;;
4448;SDS011;2237;51.870;6.160;2023-03-01T17:24:56;7.93;;;3.50;;
4448;SDS011;2237;51.870;6.160;2023-03-01T17:27:22;8.20;;;4.13;;
4448;SDS011;2237;51.870;6.160;2023-03-01T17:29:50;8.60;;;4.32;;
4448;SDS011;2237;51.870;6.160;2023-03-01T17:32:17;10.00;;;3.95;;